createdAt,value
2023-05-14T00:02:01.629Z,7.04
2023-05-14T00:07:03.605Z,6.87
2023-05-14T00:12:06.074Z,6.68
2023-05-14T00:17:08.587Z,6.60
2023-05-14T00:22:11.282Z,6.59
2023-05-14T00:27:13.285Z,6.61
2023-05-14T00:32:15.446Z,6.62
2023-05-14T00:37:17.431Z,6.56
2023-05-14T00:42:19.531Z,6.55
2023-05-14T00:47:21.612Z,6.31
2023-05-14T00:52:23.747Z,6.15
2023-05-14T00:57:25.781Z,6.10
2023-05-14T01:02:27.886Z,6.15
2023-05-14T01:08:00.631Z,6.11
2023-05-14T01:13:08.545Z,6.10
2023-05-14T01:18:13.893Z,6.12
2023-05-14T01:23:15.885Z,5.98
2023-05-14T01:28:20.378Z,5.97
2023-05-14T01:33:25.034Z,5.90
2023-05-14T01:38:31.041Z,5.83
2023-05-14T01:43:33.483Z,5.83
2023-05-14T01:48:35.332Z,5.84
2023-05-14T01:53:37.520Z,5.73
2023-05-14T01:58:39.596Z,5.69
2023-05-14T02:03:41.731Z,5.79
2023-05-14T02:08:43.992Z,5.76
2023-05-14T02:13:45.989Z,5.64
2023-05-14T02:18:48.119Z,5.61
2023-05-14T02:23:50.526Z,5.68
2023-05-14T02:28:52.585Z,5.66
2023-05-14T02:33:54.597Z,5.63
2023-05-14T02:38:59.055Z,5.62
2023-05-14T02:44:01.056Z,5.61
2023-05-14T02:49:03.487Z,5.50
2023-05-14T02:54:05.627Z,5.52
2023-05-14T02:59:07.630Z,5.48
2023-05-14T03:04:09.910Z,5.52
2023-05-14T03:09:11.921Z,5.57
2023-05-14T03:14:13.966Z,5.60
2023-05-14T03:19:16.029Z,5.69
2023-05-14T03:24:17.998Z,5.77
2023-05-14T03:29:20.038Z,5.89
2023-05-14T03:34:22.276Z,6.00
2023-05-14T03:39:24.368Z,6.03
2023-05-14T03:44:26.432Z,6.09
2023-05-14T03:49:28.415Z,6.16
2023-05-14T03:54:30.524Z,6.21
2023-05-14T03:59:32.622Z,6.36
2023-05-14T04:04:34.820Z,6.40
2023-05-14T04:09:36.949Z,6.53
2023-05-14T04:14:39.009Z,6.69
2023-05-14T04:19:41.101Z,6.86
2023-05-14T04:24:43.040Z,6.97
2023-05-14T04:29:44.978Z,7.23
2023-05-14T04:34:47.581Z,7.58
2023-05-14T04:39:49.560Z,7.96
2023-05-14T04:44:51.555Z,8.39
2023-05-14T04:49:53.586Z,8.89
2023-05-14T04:54:55.605Z,9.33
2023-05-14T04:59:57.630Z,9.81
2023-05-14T05:04:59.601Z,10.26
2023-05-14T05:10:01.672Z,10.68
2023-05-14T05:15:04.023Z,11.17
2023-05-14T05:20:09.926Z,11.60
2023-05-14T05:25:13.209Z,12.13
2023-05-14T05:30:15.218Z,12.68
2023-05-14T05:35:17.280Z,13.37
2023-05-14T05:40:19.433Z,13.74
2023-05-14T05:45:21.706Z,14.11
2023-05-14T05:50:24.904Z,14.52
2023-05-14T05:55:27.410Z,15.09
2023-05-14T06:00:29.517Z,15.54
2023-05-14T06:05:31.598Z,15.82
2023-05-14T06:10:34.792Z,16.32
2023-05-14T06:15:36.889Z,16.70
2023-05-14T06:20:41.464Z,17.07
2023-05-14T06:25:44.054Z,17.47
2023-05-14T06:30:46.235Z,17.79
2023-05-14T06:35:48.420Z,18.16
2023-05-14T06:40:50.616Z,18.64
2023-05-14T06:45:54.675Z,18.88
2023-05-14T06:50:57.242Z,18.88
2023-05-14T06:55:59.348Z,19.56
2023-05-14T07:01:01.616Z,19.74
2023-05-14T07:06:03.892Z,19.89
2023-05-14T07:16:25.165Z,20.64
2023-05-14T07:21:27.219Z,20.90
2023-05-14T07:26:29.919Z,20.97
2023-05-14T07:31:32.605Z,21.90
2023-05-14T07:36:35.091Z,21.92
2023-05-14T07:41:38.063Z,22.38
2023-05-14T07:46:40.177Z,22.15
2023-05-14T07:51:42.223Z,22.39
2023-05-14T07:56:44.882Z,22.86
2023-05-14T08:01:47.410Z,22.43
2023-05-14T08:06:50.176Z,22.95
2023-05-14T08:11:52.193Z,22.71
2023-05-14T08:16:54.432Z,23.13
2023-05-14T08:21:56.590Z,23.47
2023-05-14T08:26:58.667Z,24.02
2023-05-14T08:32:08.450Z,23.88
2023-05-14T08:37:18.077Z,24.35
2023-05-14T08:42:22.387Z,24.58
2023-05-14T08:47:25.631Z,24.39
2023-05-14T08:52:28.097Z,24.43
2023-05-14T08:57:32.356Z,24.73
2023-05-14T09:02:35.356Z,25.49
2023-05-14T09:07:37.697Z,25.35
2023-05-14T09:12:39.891Z,25.45
2023-05-14T09:17:42.089Z,25.69
2023-05-14T09:22:44.194Z,25.80
2023-05-14T09:27:50.623Z,24.64
2023-05-14T09:32:55.434Z,24.66
2023-05-14T09:37:57.573Z,24.10
2023-05-14T09:43:02.125Z,25.07
2023-05-14T09:48:04.465Z,24.87
2023-05-14T09:53:07.698Z,25.31
2023-05-14T09:58:09.791Z,25.12
2023-05-14T10:03:16.050Z,25.51
2023-05-14T10:08:26.020Z,25.28
2023-05-14T10:13:37.527Z,25.04
2023-05-14T10:18:48.795Z,25.03
2023-05-14T10:23:52.614Z,25.62
2023-05-14T10:28:56.537Z,25.04
2023-05-14T10:33:59.934Z,25.43
2023-05-14T10:39:04.921Z,26.05
2023-05-14T10:44:09.849Z,25.50
2023-05-14T10:49:12.091Z,25.48
2023-05-14T10:54:14.270Z,25.72
2023-05-14T10:59:19.392Z,25.59
2023-05-14T11:04:24.739Z,25.40
2023-05-14T11:09:27.329Z,25.19
2023-05-14T11:14:29.490Z,24.67
2023-05-14T11:19:31.738Z,24.98
2023-05-14T11:24:33.876Z,25.27
2023-05-14T11:29:43.603Z,25.35
2023-05-14T11:34:46.798Z,25.10
2023-05-14T11:39:53.061Z,25.33
2023-05-14T11:44:55.159Z,24.99
2023-05-14T11:49:57.310Z,25.47
2023-05-14T11:54:59.381Z,25.14
2023-05-14T12:00:01.529Z,25.07
2023-05-14T12:05:03.651Z,24.98
2023-05-14T12:10:06.431Z,24.63
2023-05-14T12:15:16.807Z,24.51
2023-05-14T12:20:19.409Z,24.32
2023-05-14T12:25:21.752Z,24.45
2023-05-14T12:30:23.793Z,24.12
2023-05-14T12:35:25.995Z,23.94
2023-05-14T12:40:28.346Z,23.84
2023-05-14T12:45:31.075Z,23.69
2023-05-14T12:50:33.076Z,23.43
2023-05-14T12:55:35.173Z,23.32
2023-05-14T13:00:37.256Z,23.62
2023-05-14T13:05:39.543Z,23.63
2023-05-14T13:10:41.664Z,23.54
2023-05-14T13:15:43.845Z,23.52
2023-05-14T13:20:47.744Z,23.65
2023-05-14T13:25:50.128Z,23.88
2023-05-14T13:31:12.599Z,24.24
2023-05-14T13:36:15.415Z,23.94
2023-05-14T13:41:17.436Z,23.86
2023-05-14T13:46:19.578Z,24.13
2023-05-14T13:51:25.595Z,24.20
2023-05-14T13:56:27.685Z,24.15
2023-05-14T14:01:31.297Z,24.15
2023-05-14T14:06:33.566Z,24.04
2023-05-14T14:11:35.704Z,23.88
2023-05-14T14:16:37.928Z,23.83
2023-05-14T14:21:43.026Z,23.73
2023-05-14T14:26:45.078Z,23.59
2023-05-14T14:31:49.238Z,23.71
2023-05-14T14:36:51.397Z,23.58
2023-05-14T14:41:53.504Z,23.81
2023-05-14T14:46:55.629Z,23.83
2023-05-14T14:51:58.030Z,23.58
2023-05-14T14:57:00.153Z,23.53
2023-05-14T15:02:02.482Z,23.54
2023-05-14T15:07:05.106Z,23.50
2023-05-14T15:12:09.170Z,23.34
2023-05-14T15:17:11.264Z,23.12
2023-05-14T15:22:13.475Z,23.07
2023-05-14T15:27:16.043Z,23.18
2023-05-14T15:32:18.234Z,23.12
2023-05-14T15:37:21.033Z,23.16
2023-05-14T15:42:23.131Z,23.01
2023-05-14T15:47:25.296Z,23.00
2023-05-14T15:52:27.784Z,22.76
2023-05-14T15:57:29.980Z,22.76
2023-05-14T16:02:33.603Z,22.73
2023-05-14T16:07:37.470Z,22.62
2023-05-14T16:12:39.601Z,22.64
2023-05-14T16:17:42.843Z,22.41
2023-05-14T16:22:45.535Z,22.42
2023-05-14T16:27:47.765Z,22.41
2023-05-14T16:32:50.227Z,22.37
2023-05-14T16:37:52.570Z,22.18
2023-05-14T16:42:54.593Z,22.14
2023-05-14T16:47:56.759Z,22.07
2023-05-14T16:52:59.125Z,22.04
2023-05-14T16:58:03.533Z,21.84
2023-05-14T17:03:06.702Z,21.72
2023-05-14T17:08:08.813Z,21.65
2023-05-14T17:13:10.980Z,21.51
2023-05-14T17:18:13.449Z,21.26
2023-05-14T17:23:15.649Z,20.99
2023-05-14T17:28:17.794Z,20.71
2023-05-14T17:33:19.767Z,20.35
2023-05-14T17:38:21.898Z,20.14
2023-05-14T17:43:23.938Z,19.81
2023-05-14T17:48:26.036Z,19.59
2023-05-14T17:53:28.129Z,19.36
2023-05-14T17:58:30.317Z,19.02
2023-05-14T18:03:32.408Z,18.71
2023-05-14T18:08:35.322Z,18.40
2023-05-14T18:13:37.716Z,18.23
2023-05-14T18:18:39.900Z,18.04
2023-05-14T18:23:42.080Z,17.79
2023-05-14T18:28:44.502Z,17.64
2023-05-14T18:33:46.736Z,17.43
2023-05-14T18:38:48.923Z,17.32
2023-05-14T18:43:51.211Z,17.09
2023-05-14T18:48:53.327Z,16.97
2023-05-14T18:53:56.041Z,16.70
2023-05-14T18:58:58.997Z,16.42
2023-05-14T19:04:05.628Z,16.28
2023-05-14T19:09:11.111Z,15.99
2023-05-14T19:14:46.420Z,15.90
2023-05-14T19:20:09.806Z,15.69
2023-05-14T19:25:18.833Z,15.58
2023-05-14T19:30:24.041Z,15.51
2023-05-14T19:35:26.861Z,15.23
2023-05-14T19:40:29.402Z,15.16
2023-05-14T19:45:40.005Z,15.04
2023-05-14T19:50:43.019Z,14.94
2023-05-14T19:55:45.335Z,14.95
2023-05-14T20:00:55.926Z,15.42
2023-05-14T20:05:58.706Z,15.48
2023-05-14T20:11:06.785Z,15.45
2023-05-14T20:16:28.683Z,15.43
2023-05-14T20:21:32.747Z,15.43
2023-05-14T20:26:35.361Z,15.39
2023-05-14T20:31:38.009Z,15.32
2023-05-14T20:36:42.549Z,15.31
2023-05-14T20:41:46.068Z,15.29
2023-05-14T20:46:48.669Z,15.31
2023-05-14T20:51:50.828Z,15.29
2023-05-14T20:56:53.221Z,15.22
2023-05-14T21:01:55.574Z,15.16
2023-05-14T21:06:58.130Z,15.11
2023-05-14T21:12:00.887Z,15.05
2023-05-14T21:17:04.556Z,14.95
2023-05-14T21:22:07.849Z,14.87
2023-05-14T21:27:09.978Z,14.80
2023-05-14T21:32:12.433Z,14.75
2023-05-14T21:37:15.966Z,14.72
2023-05-14T21:42:19.153Z,14.71
2023-05-14T21:47:21.739Z,14.69
2023-05-14T21:52:23.842Z,14.68
2023-05-14T21:57:28.368Z,14.66
2023-05-14T22:02:31.575Z,14.66
2023-05-14T22:07:33.616Z,14.67
2023-05-14T22:12:35.652Z,14.68
2023-05-14T22:17:38.073Z,14.69
2023-05-14T22:22:40.122Z,14.71
2023-05-14T22:27:42.043Z,14.73
2023-05-14T22:32:44.301Z,14.74
2023-05-14T22:37:46.367Z,14.72
2023-05-14T22:42:48.328Z,14.71
2023-05-14T22:47:50.641Z,14.69
2023-05-14T22:52:52.718Z,14.67
2023-05-14T22:57:54.717Z,14.69
2023-05-14T23:02:56.665Z,14.68
2023-05-14T23:07:58.688Z,14.70
2023-05-14T23:13:00.777Z,14.73
2023-05-14T23:18:03.001Z,14.75
2023-05-14T23:23:06.592Z,14.76
2023-05-14T23:28:08.576Z,14.75
2023-05-14T23:33:10.759Z,14.76
2023-05-14T23:38:12.880Z,14.79
2023-05-14T23:43:15.322Z,14.80
2023-05-14T23:48:17.474Z,14.78
2023-05-14T23:53:19.460Z,14.81
2023-05-14T23:58:21.400Z,14.82
